sensor_id;sensor_type;location;lat;lon;timestamp;temperature;humidity
37242;DHT22;23135;51.078;12.108;2023-04-25T00:02:21;6.10;99.90
37242;DHT22;23135;51.078;12.108;2023-04-25T00:04:47;6.00;99.90
37242;DHT22;23135;51.078;12.108;2023-04-25T00:07:15;5.90;99.90
37242;DHT22;23135;51.078;12.108;2023-04-25T00:09:41;6.00;99.90
37242;DHT22;23135;51.078;12.108;2023-04-25T00:12:07;6.00;99.90
37242;DHT22;23135;51.078;12.108;2023-04-25T00:14:32;6.00;99.90
37242;DHT22;23135;51.078;12.108;2023-04-25T00:17:01;6.10;99.90
37242;DHT22;23135;51.078;12.108;2023-04-25T00:19:28;6.00;99.90
37242;DHT22;23135;51.078;12.108;2023-04-25T00:21:56;5.90;99.90
37242;DHT22;23135;51.078;12.108;2023-04-25T00:24:22;5.90;99.90
37242;DHT22;23135;51.078;12.108;2023-04-25T00:26:48;5.80;99.90
37242;DHT22;23135;51.078;12.108;2023-04-25T00:29:14;5.80;99.90
37242;DHT22;23135;51.078;12.108;2023-04-25T00:31:39;5.80;99.90
37242;DHT22;23135;51.078;12.108;2023-04-25T00:34:06;5.80;99.90
37242;DHT22;23135;51.078;12.108;2023-04-25T00:36:32;5.90;99.90
37242;DHT22;23135;51.078;12.108;2023-04-25T00:38:57;5.80;99.90
37242;DHT22;23135;51.078;12.108;2023-04-25T00:41:25;5.80;99.90
37242;DHT22;23135;51.078;12.108;2023-04-25T00:43:51;5.80;99.90
37242;DHT22;23135;51.078;12.108;2023-04-25T00:46:17;5.70;99.90
37242;DHT22;23135;51.078;12.108;2023-04-25T00:48:42;5.70;99.90
37242;DHT22;23135;51.078;12.108;2023-04-25T00:51:09;5.60;99.90
37242;DHT22;23135;51.078;12.108;2023-04-25T00:53:38;5.60;99.90
37242;DHT22;23135;51.078;12.108;2023-04-25T00:56:03;5.50;99.90
37242;DHT22;23135;51.078;12.108;2023-04-25T00:58:29;5.50;99.90
37242;DHT22;23135;51.078;12.108;2023-04-25T01:00:56;5.40;99.90
37242;DHT22;23135;51.078;12.108;2023-04-25T01:03:22;5.40;99.90
37242;DHT22;23135;51.078;12.108;2023-04-25T01:05:49;5.30;99.90
37242;DHT22;23135;51.078;12.108;2023-04-25T01:08:15;5.30;99.90
37242;DHT22;23135;51.078;12.108;2023-04-25T01:10:41;5.30;99.90
37242;DHT22;23135;51.078;12.108;2023-04-25T01:13:07;5.20;99.90
37242;DHT22;23135;51.078;12.108;2023-04-25T01:15:33;5.20;99.90
37242;DHT22;23135;51.078;12.108;2023-04-25T01:18:00;5.20;99.90
37242;DHT22;23135;51.078;12.108;2023-04-25T01:20:28;5.20;99.90
37242;DHT22;23135;51.078;12.108;2023-04-25T01:22:55;5.20;99.90
37242;DHT22;23135;51.078;12.108;2023-04-25T01:25:22;5.20;99.90
37242;DHT22;23135;51.078;12.108;2023-04-25T01:27:47;5.20;99.90
37242;DHT22;23135;51.078;12.108;2023-04-25T01:30:14;5.20;99.90
37242;DHT22;23135;51.078;12.108;2023-04-25T01:32:41;5.20;99.90
37242;DHT22;23135;51.078;12.108;2023-04-25T01:35:11;5.20;99.90
37242;DHT22;23135;51.078;12.108;2023-04-25T01:37:41;5.20;99.90
37242;DHT22;23135;51.078;12.108;2023-04-25T01:40:08;5.10;99.90
37242;DHT22;23135;51.078;12.108;2023-04-25T01:42:35;5.20;99.90
37242;DHT22;23135;51.078;12.108;2023-04-25T01:45:01;5.20;99.90
37242;DHT22;23135;51.078;12.108;2023-04-25T01:47:27;5.20;99.90
37242;DHT22;23135;51.078;12.108;2023-04-25T01:49:53;5.10;99.90
37242;DHT22;23135;51.078;12.108;2023-04-25T01:52:18;5.10;99.90
37242;DHT22;23135;51.078;12.108;2023-04-25T01:54:44;5.20;99.90
37242;DHT22;23135;51.078;12.108;2023-04-25T01:57:13;5.10;99.90
37242;DHT22;23135;51.078;12.108;2023-04-25T01:59:39;5.10;99.90
37242;DHT22;23135;51.078;12.108;2023-04-25T02:02:05;5.00;99.90
37242;DHT22;23135;51.078;12.108;2023-04-25T02:04:30;5.00;99.90
37242;DHT22;23135;51.078;12.108;2023-04-25T02:06:56;5.00;99.90
37242;DHT22;23135;51.078;12.108;2023-04-25T02:09:22;4.90;99.90
37242;DHT22;23135;51.078;12.108;2023-04-25T02:11:48;4.90;99.90
37242;DHT22;23135;51.078;12.108;2023-04-25T02:14:14;4.90;99.90
37242;DHT22;23135;51.078;12.108;2023-04-25T02:16:40;4.80;99.90
37242;DHT22;23135;51.078;12.108;2023-04-25T02:19:06;4.80;99.90
37242;DHT22;23135;51.078;12.108;2023-04-25T02:21:32;4.70;99.90
37242;DHT22;23135;51.078;12.108;2023-04-25T02:23:58;4.70;99.90
37242;DHT22;23135;51.078;12.108;2023-04-25T02:26:23;4.70;99.90
37242;DHT22;23135;51.078;12.108;2023-04-25T02:28:50;4.70;99.90
37242;DHT22;23135;51.078;12.108;2023-04-25T02:31:15;4.60;99.90
37242;DHT22;23135;51.078;12.108;2023-04-25T02:33:42;4.60;99.90
37242;DHT22;23135;51.078;12.108;2023-04-25T02:36:08;4.70;99.90
37242;DHT22;23135;51.078;12.108;2023-04-25T02:38:33;4.70;99.90
37242;DHT22;23135;51.078;12.108;2023-04-25T02:40:59;4.80;99.90
37242;DHT22;23135;51.078;12.108;2023-04-25T02:43:25;4.80;99.90
37242;DHT22;23135;51.078;12.108;2023-04-25T02:45:50;4.90;99.90
37242;DHT22;23135;51.078;12.108;2023-04-25T02:48:16;4.80;99.90
37242;DHT22;23135;51.078;12.108;2023-04-25T02:50:41;4.80;99.90
37242;DHT22;23135;51.078;12.108;2023-04-25T02:53:07;4.70;99.90
37242;DHT22;23135;51.078;12.108;2023-04-25T02:55:33;4.70;99.90
37242;DHT22;23135;51.078;12.108;2023-04-25T02:57:58;4.70;99.90
37242;DHT22;23135;51.078;12.108;2023-04-25T03:00:24;4.60;99.90
37242;DHT22;23135;51.078;12.108;2023-04-25T03:02:50;4.70;99.90
37242;DHT22;23135;51.078;12.108;2023-04-25T03:05:16;4.70;99.90
37242;DHT22;23135;51.078;12.108;2023-04-25T03:07:42;4.60;99.90
37242;DHT22;23135;51.078;12.108;2023-04-25T03:10:09;4.70;99.90
37242;DHT22;23135;51.078;12.108;2023-04-25T03:12:35;4.70;99.90
37242;DHT22;23135;51.078;12.108;2023-04-25T03:15:00;4.70;99.90
37242;DHT22;23135;51.078;12.108;2023-04-25T03:17:26;4.70;99.90
37242;DHT22;23135;51.078;12.108;2023-04-25T03:19:51;4.70;99.90
37242;DHT22;23135;51.078;12.108;2023-04-25T03:22:17;4.70;99.90
37242;DHT22;23135;51.078;12.108;2023-04-25T03:24:43;4.60;99.90
37242;DHT22;23135;51.078;12.108;2023-04-25T03:27:08;4.60;99.90
37242;DHT22;23135;51.078;12.108;2023-04-25T03:29:34;4.60;99.90
37242;DHT22;23135;51.078;12.108;2023-04-25T03:31:59;4.60;99.90
37242;DHT22;23135;51.078;12.108;2023-04-25T03:34:25;4.50;99.90
37242;DHT22;23135;51.078;12.108;2023-04-25T03:36:51;4.50;99.90
37242;DHT22;23135;51.078;12.108;2023-04-25T03:39:17;4.40;99.90
37242;DHT22;23135;51.078;12.108;2023-04-25T03:41:42;4.40;99.90
37242;DHT22;23135;51.078;12.108;2023-04-25T03:44:08;4.40;99.90
37242;DHT22;23135;51.078;12.108;2023-04-25T03:46:33;4.40;99.90
37242;DHT22;23135;51.078;12.108;2023-04-25T03:48:59;4.40;99.90
37242;DHT22;23135;51.078;12.108;2023-04-25T03:51:25;4.30;99.90
37242;DHT22;23135;51.078;12.108;2023-04-25T03:53:51;4.10;99.90
37242;DHT22;23135;51.078;12.108;2023-04-25T03:56:17;4.00;99.90
37242;DHT22;23135;51.078;12.108;2023-04-25T03:58:43;3.90;99.90
37242;DHT22;23135;51.078;12.108;2023-04-25T04:01:08;3.90;99.90
37242;DHT22;23135;51.078;12.108;2023-04-25T04:03:35;3.80;99.90
37242;DHT22;23135;51.078;12.108;2023-04-25T04:06:04;3.80;99.90
37242;DHT22;23135;51.078;12.108;2023-04-25T04:08:31;3.90;99.90
37242;DHT22;23135;51.078;12.108;2023-04-25T04:11:00;4.00;99.90
37242;DHT22;23135;51.078;12.108;2023-04-25T04:13:26;4.10;99.90
37242;DHT22;23135;51.078;12.108;2023-04-25T04:15:52;4.20;99.90
37242;DHT22;23135;51.078;12.108;2023-04-25T04:18:18;4.30;99.90
37242;DHT22;23135;51.078;12.108;2023-04-25T04:20:44;4.40;99.90
37242;DHT22;23135;51.078;12.108;2023-04-25T04:23:09;4.40;99.90
37242;DHT22;23135;51.078;12.108;2023-04-25T04:25:36;4.50;99.90
37242;DHT22;23135;51.078;12.108;2023-04-25T04:28:02;4.60;99.90
37242;DHT22;23135;51.078;12.108;2023-04-25T04:30:28;4.80;99.90
37242;DHT22;23135;51.078;12.108;2023-04-25T04:32:55;4.80;99.90
37242;DHT22;23135;51.078;12.108;2023-04-25T04:35:21;4.90;99.90
37242;DHT22;23135;51.078;12.108;2023-04-25T04:37:47;5.00;99.90
37242;DHT22;23135;51.078;12.108;2023-04-25T04:40:14;5.10;99.90
37242;DHT22;23135;51.078;12.108;2023-04-25T04:42:41;5.10;99.90
37242;DHT22;23135;51.078;12.108;2023-04-25T04:45:08;5.20;99.90
37242;DHT22;23135;51.078;12.108;2023-04-25T04:47:34;5.20;99.90
37242;DHT22;23135;51.078;12.108;2023-04-25T04:50:06;5.30;99.90
37242;DHT22;23135;51.078;12.108;2023-04-25T04:52:34;5.40;99.90
37242;DHT22;23135;51.078;12.108;2023-04-25T04:55:00;5.40;99.90
37242;DHT22;23135;51.078;12.108;2023-04-25T04:57:25;5.40;99.90
37242;DHT22;23135;51.078;12.108;2023-04-25T04:59:52;5.30;99.90
37242;DHT22;23135;51.078;12.108;2023-04-25T05:02:17;5.40;99.90
37242;DHT22;23135;51.078;12.108;2023-04-25T05:04:43;5.30;99.90
37242;DHT22;23135;51.078;12.108;2023-04-25T05:07:08;5.30;99.90
37242;DHT22;23135;51.078;12.108;2023-04-25T05:09:34;5.40;99.90
37242;DHT22;23135;51.078;12.108;2023-04-25T05:11:59;5.40;99.90
37242;DHT22;23135;51.078;12.108;2023-04-25T05:14:26;5.50;99.90
37242;DHT22;23135;51.078;12.108;2023-04-25T05:16:51;5.60;99.90
37242;DHT22;23135;51.078;12.108;2023-04-25T05:19:17;5.70;99.90
37242;DHT22;23135;51.078;12.108;2023-04-25T05:21:43;5.50;99.90
37242;DHT22;23135;51.078;12.108;2023-04-25T05:24:08;5.50;99.90
37242;DHT22;23135;51.078;12.108;2023-04-25T05:26:34;5.60;99.90
37242;DHT22;23135;51.078;12.108;2023-04-25T05:29:00;5.60;99.90
37242;DHT22;23135;51.078;12.108;2023-04-25T05:31:26;5.70;99.90
37242;DHT22;23135;51.078;12.108;2023-04-25T05:33:51;5.80;99.90
37242;DHT22;23135;51.078;12.108;2023-04-25T05:36:18;5.90;99.90
37242;DHT22;23135;51.078;12.108;2023-04-25T05:38:44;6.00;99.90
37242;DHT22;23135;51.078;12.108;2023-04-25T05:41:09;6.10;99.90
37242;DHT22;23135;51.078;12.108;2023-04-25T05:43:35;6.20;99.90
37242;DHT22;23135;51.078;12.108;2023-04-25T05:46:01;6.20;99.90
37242;DHT22;23135;51.078;12.108;2023-04-25T05:48:26;6.30;99.90
37242;DHT22;23135;51.078;12.108;2023-04-25T05:50:52;6.40;99.90
37242;DHT22;23135;51.078;12.108;2023-04-25T05:53:18;6.50;99.90
37242;DHT22;23135;51.078;12.108;2023-04-25T05:55:44;6.70;99.90
37242;DHT22;23135;51.078;12.108;2023-04-25T05:58:10;6.80;99.90
37242;DHT22;23135;51.078;12.108;2023-04-25T06:00:35;6.90;99.90
37242;DHT22;23135;51.078;12.108;2023-04-25T06:03:01;7.00;99.90
37242;DHT22;23135;51.078;12.108;2023-04-25T06:05:27;7.10;99.90
37242;DHT22;23135;51.078;12.108;2023-04-25T06:07:52;7.20;99.90
37242;DHT22;23135;51.078;12.108;2023-04-25T06:10:18;7.30;99.90
37242;DHT22;23135;51.078;12.108;2023-04-25T06:12:44;7.40;99.90
37242;DHT22;23135;51.078;12.108;2023-04-25T06:15:09;7.50;99.90
37242;DHT22;23135;51.078;12.108;2023-04-25T06:17:35;7.70;99.90
37242;DHT22;23135;51.078;12.108;2023-04-25T06:20:01;7.80;99.90
37242;DHT22;23135;51.078;12.108;2023-04-25T06:22:27;8.10;99.90
37242;DHT22;23135;51.078;12.108;2023-04-25T06:24:52;8.30;99.90
37242;DHT22;23135;51.078;12.108;2023-04-25T06:27:18;8.30;99.90
37242;DHT22;23135;51.078;12.108;2023-04-25T06:29:45;8.50;99.90
37242;DHT22;23135;51.078;12.108;2023-04-25T06:32:10;8.70;99.90
37242;DHT22;23135;51.078;12.108;2023-04-25T06:34:36;8.90;99.90
37242;DHT22;23135;51.078;12.108;2023-04-25T06:37:01;8.90;99.90
37242;DHT22;23135;51.078;12.108;2023-04-25T06:39:27;9.00;99.90
37242;DHT22;23135;51.078;12.108;2023-04-25T06:41:52;9.00;99.90
37242;DHT22;23135;51.078;12.108;2023-04-25T06:44:18;9.20;99.90
37242;DHT22;23135;51.078;12.108;2023-04-25T06:46:44;9.50;99.90
37242;DHT22;23135;51.078;12.108;2023-04-25T06:49:09;9.40;99.90
37242;DHT22;23135;51.078;12.108;2023-04-25T06:51:35;9.10;99.90
37242;DHT22;23135;51.078;12.108;2023-04-25T06:54:00;8.90;99.90
37242;DHT22;23135;51.078;12.108;2023-04-25T06:56:26;8.80;99.90
37242;DHT22;23135;51.078;12.108;2023-04-25T06:58:53;8.90;99.90
37242;DHT22;23135;51.078;12.108;2023-04-25T07:01:19;8.90;99.90
37242;DHT22;23135;51.078;12.108;2023-04-25T07:03:44;8.90;99.90
37242;DHT22;23135;51.078;12.108;2023-04-25T07:06:10;8.90;99.90
37242;DHT22;23135;51.078;12.108;2023-04-25T07:08:35;8.70;99.90
37242;DHT22;23135;51.078;12.108;2023-04-25T07:11:01;8.80;99.90
37242;DHT22;23135;51.078;12.108;2023-04-25T07:13:26;8.80;99.90
37242;DHT22;23135;51.078;12.108;2023-04-25T07:15:52;8.70;99.90
37242;DHT22;23135;51.078;12.108;2023-04-25T07:18:17;8.60;99.90
37242;DHT22;23135;51.078;12.108;2023-04-25T07:20:43;8.50;99.90
37242;DHT22;23135;51.078;12.108;2023-04-25T07:23:09;8.60;99.90
37242;DHT22;23135;51.078;12.108;2023-04-25T07:25:34;8.40;99.90
37242;DHT22;23135;51.078;12.108;2023-04-25T07:28:00;8.20;99.90
37242;DHT22;23135;51.078;12.108;2023-04-25T07:30:26;8.20;99.90
37242;DHT22;23135;51.078;12.108;2023-04-25T07:32:51;8.30;99.90
37242;DHT22;23135;51.078;12.108;2023-04-25T07:35:17;8.30;99.90
37242;DHT22;23135;51.078;12.108;2023-04-25T07:37:43;8.30;99.90
37242;DHT22;23135;51.078;12.108;2023-04-25T07:40:09;8.20;99.90
37242;DHT22;23135;51.078;12.108;2023-04-25T07:42:35;8.20;99.90
37242;DHT22;23135;51.078;12.108;2023-04-25T07:45:01;8.10;99.90
37242;DHT22;23135;51.078;12.108;2023-04-25T07:47:26;8.20;99.90
37242;DHT22;23135;51.078;12.108;2023-04-25T07:49:52;8.10;99.90
37242;DHT22;23135;51.078;12.108;2023-04-25T07:52:18;8.20;99.90
37242;DHT22;23135;51.078;12.108;2023-04-25T07:54:43;8.10;99.90
37242;DHT22;23135;51.078;12.108;2023-04-25T07:57:09;8.10;99.90
37242;DHT22;23135;51.078;12.108;2023-04-25T07:59:34;8.10;99.90
37242;DHT22;23135;51.078;12.108;2023-04-25T08:02:00;8.10;99.90
37242;DHT22;23135;51.078;12.108;2023-04-25T08:04:26;8.20;99.90
37242;DHT22;23135;51.078;12.108;2023-04-25T08:06:52;8.20;99.90
37242;DHT22;23135;51.078;12.108;2023-04-25T08:09:19;8.20;99.90
37242;DHT22;23135;51.078;12.108;2023-04-25T08:11:45;8.20;99.90
37242;DHT22;23135;51.078;12.108;2023-04-25T08:14:11;8.10;99.90
37242;DHT22;23135;51.078;12.108;2023-04-25T08:16:37;8.10;99.90
37242;DHT22;23135;51.078;12.108;2023-04-25T08:19:03;8.10;99.90
37242;DHT22;23135;51.078;12.108;2023-04-25T08:23:55;8.00;99.90
37242;DHT22;23135;51.078;12.108;2023-04-25T08:26:21;8.10;99.90
37242;DHT22;23135;51.078;12.108;2023-04-25T08:28:46;8.10;99.90
37242;DHT22;23135;51.078;12.108;2023-04-25T08:31:12;8.00;99.90
37242;DHT22;23135;51.078;12.108;2023-04-25T08:33:37;7.90;99.90
37242;DHT22;23135;51.078;12.108;2023-04-25T08:36:03;7.90;99.90
37242;DHT22;23135;51.078;12.108;2023-04-25T08:38:29;7.90;99.90
37242;DHT22;23135;51.078;12.108;2023-04-25T08:40:54;7.90;99.90
37242;DHT22;23135;51.078;12.108;2023-04-25T08:43:23;7.90;99.90
37242;DHT22;23135;51.078;12.108;2023-04-25T08:45:48;7.90;99.90
37242;DHT22;23135;51.078;12.108;2023-04-25T08:48:16;8.00;99.90
37242;DHT22;23135;51.078;12.108;2023-04-25T08:50:49;8.00;99.90
37242;DHT22;23135;51.078;12.108;2023-04-25T08:53:16;8.00;99.90
37242;DHT22;23135;51.078;12.108;2023-04-25T08:55:45;8.00;99.90
37242;DHT22;23135;51.078;12.108;2023-04-25T08:58:12;8.00;99.90
37242;DHT22;23135;51.078;12.108;2023-04-25T09:00:38;8.10;99.90
37242;DHT22;23135;51.078;12.108;2023-04-25T09:03:04;8.10;99.90
37242;DHT22;23135;51.078;12.108;2023-04-25T09:05:32;8.10;99.90
37242;DHT22;23135;51.078;12.108;2023-04-25T09:07:58;8.20;99.90
37242;DHT22;23135;51.078;12.108;2023-04-25T09:10:23;8.10;99.90
37242;DHT22;23135;51.078;12.108;2023-04-25T09:13:10;8.10;99.90
37242;DHT22;23135;51.078;12.108;2023-04-25T09:15:48;8.10;99.90
37242;DHT22;23135;51.078;12.108;2023-04-25T09:18:31;7.90;99.90
37242;DHT22;23135;51.078;12.108;2023-04-25T09:21:08;7.80;99.90
37242;DHT22;23135;51.078;12.108;2023-04-25T09:23:45;7.70;99.90
37242;DHT22;23135;51.078;12.108;2023-04-25T09:26:14;7.80;99.90
37242;DHT22;23135;51.078;12.108;2023-04-25T09:28:40;7.80;99.90
37242;DHT22;23135;51.078;12.108;2023-04-25T09:31:06;7.80;99.90
37242;DHT22;23135;51.078;12.108;2023-04-25T09:33:33;7.80;99.90
37242;DHT22;23135;51.078;12.108;2023-04-25T09:36:08;7.70;99.90
37242;DHT22;23135;51.078;12.108;2023-04-25T09:38:45;7.70;99.90
37242;DHT22;23135;51.078;12.108;2023-04-25T09:41:12;7.70;99.90
37242;DHT22;23135;51.078;12.108;2023-04-25T09:43:38;7.60;99.90
37242;DHT22;23135;51.078;12.108;2023-04-25T09:46:11;7.70;99.90
37242;DHT22;23135;51.078;12.108;2023-04-25T09:48:37;7.70;99.90
37242;DHT22;23135;51.078;12.108;2023-04-25T09:51:06;7.70;99.90
37242;DHT22;23135;51.078;12.108;2023-04-25T09:53:37;7.70;99.90
37242;DHT22;23135;51.078;12.108;2023-04-25T09:56:05;7.70;99.90
37242;DHT22;23135;51.078;12.108;2023-04-25T09:58:32;7.90;99.90
37242;DHT22;23135;51.078;12.108;2023-04-25T10:01:00;8.20;99.90
37242;DHT22;23135;51.078;12.108;2023-04-25T10:03:30;8.40;99.90
37242;DHT22;23135;51.078;12.108;2023-04-25T10:06:00;8.50;99.90
37242;DHT22;23135;51.078;12.108;2023-04-25T10:08:32;8.30;99.90
37242;DHT22;23135;51.078;12.108;2023-04-25T10:11:02;8.20;99.90
37242;DHT22;23135;51.078;12.108;2023-04-25T10:13:32;8.20;99.90
37242;DHT22;23135;51.078;12.108;2023-04-25T10:16:03;8.20;99.90
37242;DHT22;23135;51.078;12.108;2023-04-25T10:18:30;8.10;99.90
37242;DHT22;23135;51.078;12.108;2023-04-25T10:21:00;8.10;99.90
37242;DHT22;23135;51.078;12.108;2023-04-25T10:23:26;8.10;99.90
37242;DHT22;23135;51.078;12.108;2023-04-25T10:25:52;8.10;99.90
37242;DHT22;23135;51.078;12.108;2023-04-25T10:28:19;8.10;99.90
37242;DHT22;23135;51.078;12.108;2023-04-25T10:31:00;7.90;99.90
37242;DHT22;23135;51.078;12.108;2023-04-25T10:33:44;7.80;99.90
37242;DHT22;23135;51.078;12.108;2023-04-25T10:36:11;7.60;99.90
37242;DHT22;23135;51.078;12.108;2023-04-25T10:38:37;7.60;99.90
37242;DHT22;23135;51.078;12.108;2023-04-25T10:41:04;7.50;99.90
37242;DHT22;23135;51.078;12.108;2023-04-25T10:45:56;7.60;99.90
37242;DHT22;23135;51.078;12.108;2023-04-25T10:48:26;7.50;99.90
37242;DHT22;23135;51.078;12.108;2023-04-25T10:51:10;7.40;99.90
37242;DHT22;23135;51.078;12.108;2023-04-25T10:53:36;7.30;99.90
37242;DHT22;23135;51.078;12.108;2023-04-25T10:56:19;7.10;99.90
37242;DHT22;23135;51.078;12.108;2023-04-25T10:58:45;7.20;99.90
37242;DHT22;23135;51.078;12.108;2023-04-25T11:01:13;7.20;99.90
37242;DHT22;23135;51.078;12.108;2023-04-25T11:03:43;7.20;99.90
37242;DHT22;23135;51.078;12.108;2023-04-25T11:06:23;7.20;99.90
37242;DHT22;23135;51.078;12.108;2023-04-25T11:08:51;7.30;99.90
37242;DHT22;23135;51.078;12.108;2023-04-25T11:11:18;7.30;99.90
37242;DHT22;23135;51.078;12.108;2023-04-25T11:13:44;7.50;99.90
37242;DHT22;23135;51.078;12.108;2023-04-25T11:16:10;7.60;99.90
37242;DHT22;23135;51.078;12.108;2023-04-25T11:18:36;7.90;99.90
37242;DHT22;23135;51.078;12.108;2023-04-25T11:21:02;8.00;99.90
37242;DHT22;23135;51.078;12.108;2023-04-25T11:23:30;8.00;99.90
37242;DHT22;23135;51.078;12.108;2023-04-25T11:25:56;8.20;99.90
37242;DHT22;23135;51.078;12.108;2023-04-25T11:28:22;8.30;99.90
37242;DHT22;23135;51.078;12.108;2023-04-25T11:30:52;8.50;99.90
37242;DHT22;23135;51.078;12.108;2023-04-25T11:33:17;8.70;99.90
37242;DHT22;23135;51.078;12.108;2023-04-25T11:35:43;8.80;99.90
37242;DHT22;23135;51.078;12.108;2023-04-25T11:38:09;9.10;99.90
37242;DHT22;23135;51.078;12.108;2023-04-25T11:40:38;9.40;99.90
37242;DHT22;23135;51.078;12.108;2023-04-25T11:43:03;9.50;99.90
37242;DHT22;23135;51.078;12.108;2023-04-25T11:45:29;9.60;99.90
37242;DHT22;23135;51.078;12.108;2023-04-25T11:47:56;9.70;99.90
37242;DHT22;23135;51.078;12.108;2023-04-25T11:50:21;9.70;99.90
37242;DHT22;23135;51.078;12.108;2023-04-25T11:52:48;9.80;99.90
37242;DHT22;23135;51.078;12.108;2023-04-25T11:55:18;9.80;99.90
37242;DHT22;23135;51.078;12.108;2023-04-25T11:57:49;9.80;99.90
37242;DHT22;23135;51.078;12.108;2023-04-25T12:00:20;9.70;99.90
37242;DHT22;23135;51.078;12.108;2023-04-25T12:02:51;9.70;99.90
37242;DHT22;23135;51.078;12.108;2023-04-25T12:05:17;9.70;99.90
37242;DHT22;23135;51.078;12.108;2023-04-25T12:07:43;9.80;99.90
37242;DHT22;23135;51.078;12.108;2023-04-25T12:10:10;9.90;99.90
37242;DHT22;23135;51.078;12.108;2023-04-25T12:12:37;9.90;99.90
37242;DHT22;23135;51.078;12.108;2023-04-25T12:15:10;10.00;99.90
37242;DHT22;23135;51.078;12.108;2023-04-25T12:17:37;10.00;99.90
37242;DHT22;23135;51.078;12.108;2023-04-25T12:20:28;10.00;99.90
37242;DHT22;23135;51.078;12.108;2023-04-25T12:22:57;10.20;99.90
37242;DHT22;23135;51.078;12.108;2023-04-25T12:25:39;10.10;99.90
37242;DHT22;23135;51.078;12.108;2023-04-25T12:28:09;10.10;99.90
37242;DHT22;23135;51.078;12.108;2023-04-25T12:31:05;10.10;99.90
37242;DHT22;23135;51.078;12.108;2023-04-25T12:33:32;10.30;99.90
37242;DHT22;23135;51.078;12.108;2023-04-25T12:35:59;10.50;99.90
37242;DHT22;23135;51.078;12.108;2023-04-25T12:38:27;10.80;99.90
37242;DHT22;23135;51.078;12.108;2023-04-25T12:40:54;11.50;99.90
37242;DHT22;23135;51.078;12.108;2023-04-25T12:43:20;11.80;99.90
37242;DHT22;23135;51.078;12.108;2023-04-25T12:45:55;12.10;99.90
37242;DHT22;23135;51.078;12.108;2023-04-25T12:48:22;12.40;99.90
37242;DHT22;23135;51.078;12.108;2023-04-25T12:50:48;12.70;99.90
37242;DHT22;23135;51.078;12.108;2023-04-25T12:53:22;12.30;99.90
37242;DHT22;23135;51.078;12.108;2023-04-25T12:55:49;11.50;99.90
37242;DHT22;23135;51.078;12.108;2023-04-25T12:58:15;11.10;99.90
37242;DHT22;23135;51.078;12.108;2023-04-25T13:00:41;10.80;99.90
37242;DHT22;23135;51.078;12.108;2023-04-25T13:03:08;10.50;99.90
37242;DHT22;23135;51.078;12.108;2023-04-25T13:05:34;9.90;99.90
37242;DHT22;23135;51.078;12.108;2023-04-25T13:07:59;9.60;99.90
37242;DHT22;23135;51.078;12.108;2023-04-25T13:10:25;9.20;99.90
37242;DHT22;23135;51.078;12.108;2023-04-25T13:12:51;9.10;99.90
37242;DHT22;23135;51.078;12.108;2023-04-25T13:15:16;8.90;99.90
37242;DHT22;23135;51.078;12.108;2023-04-25T13:17:42;8.80;99.90
37242;DHT22;23135;51.078;12.108;2023-04-25T13:20:09;8.80;99.90
37242;DHT22;23135;51.078;12.108;2023-04-25T13:22:39;8.70;99.90
37242;DHT22;23135;51.078;12.108;2023-04-25T13:25:06;8.70;99.90
37242;DHT22;23135;51.078;12.108;2023-04-25T13:27:33;8.60;99.90
37242;DHT22;23135;51.078;12.108;2023-04-25T13:30:00;8.60;99.90
37242;DHT22;23135;51.078;12.108;2023-04-25T13:32:27;8.60;99.90
37242;DHT22;23135;51.078;12.108;2023-04-25T13:34:52;8.60;99.90
37242;DHT22;23135;51.078;12.108;2023-04-25T13:37:18;8.70;99.90
37242;DHT22;23135;51.078;12.108;2023-04-25T13:39:44;8.90;99.90
37242;DHT22;23135;51.078;12.108;2023-04-25T13:42:09;9.00;99.90
37242;DHT22;23135;51.078;12.108;2023-04-25T13:44:36;9.20;99.90
37242;DHT22;23135;51.078;12.108;2023-04-25T13:47:01;9.30;99.90
37242;DHT22;23135;51.078;12.108;2023-04-25T13:49:27;9.60;99.90
37242;DHT22;23135;51.078;12.108;2023-04-25T13:51:53;9.70;99.40
37242;DHT22;23135;51.078;12.108;2023-04-25T13:54:18;9.80;99.90
37242;DHT22;23135;51.078;12.108;2023-04-25T13:56:44;9.90;99.90
37242;DHT22;23135;51.078;12.108;2023-04-25T13:59:10;10.00;99.90
37242;DHT22;23135;51.078;12.108;2023-04-25T14:01:36;10.20;99.90
37242;DHT22;23135;51.078;12.108;2023-04-25T14:04:02;10.50;99.90
37242;DHT22;23135;51.078;12.108;2023-04-25T14:06:29;10.70;99.90
37242;DHT22;23135;51.078;12.108;2023-04-25T14:08:55;10.80;99.90
37242;DHT22;23135;51.078;12.108;2023-04-25T14:11:21;10.70;99.70
37242;DHT22;23135;51.078;12.108;2023-04-25T14:13:46;10.70;99.90
37242;DHT22;23135;51.078;12.108;2023-04-25T14:16:13;10.60;99.80
37242;DHT22;23135;51.078;12.108;2023-04-25T14:18:38;10.40;98.80
37242;DHT22;23135;51.078;12.108;2023-04-25T14:21:04;10.20;99.00
37242;DHT22;23135;51.078;12.108;2023-04-25T14:23:30;10.20;99.80
37242;DHT22;23135;51.078;12.108;2023-04-25T14:25:55;10.20;98.80
37242;DHT22;23135;51.078;12.108;2023-04-25T14:28:21;10.00;97.40
37242;DHT22;23135;51.078;12.108;2023-04-25T14:30:47;10.00;97.90
37242;DHT22;23135;51.078;12.108;2023-04-25T14:33:12;9.90;97.50
37242;DHT22;23135;51.078;12.108;2023-04-25T14:35:39;10.00;98.30
37242;DHT22;23135;51.078;12.108;2023-04-25T14:38:05;10.10;97.20
37242;DHT22;23135;51.078;12.108;2023-04-25T14:40:30;10.20;97.80
37242;DHT22;23135;51.078;12.108;2023-04-25T14:42:56;10.40;96.80
37242;DHT22;23135;51.078;12.108;2023-04-25T14:45:22;10.40;98.00
37242;DHT22;23135;51.078;12.108;2023-04-25T14:47:47;10.40;96.90
37242;DHT22;23135;51.078;12.108;2023-04-25T14:50:13;10.30;96.10
37242;DHT22;23135;51.078;12.108;2023-04-25T14:52:38;10.10;95.90
37242;DHT22;23135;51.078;12.108;2023-04-25T14:55:04;10.10;96.10
37242;DHT22;23135;51.078;12.108;2023-04-25T14:57:33;10.10;97.40
37242;DHT22;23135;51.078;12.108;2023-04-25T14:59:59;10.10;98.00
37242;DHT22;23135;51.078;12.108;2023-04-25T15:02:26;10.00;96.80
37242;DHT22;23135;51.078;12.108;2023-04-25T15:04:52;9.90;97.10
37242;DHT22;23135;51.078;12.108;2023-04-25T15:07:17;9.90;97.10
37242;DHT22;23135;51.078;12.108;2023-04-25T15:09:43;9.90;98.60
37242;DHT22;23135;51.078;12.108;2023-04-25T15:12:09;10.00;98.50
37242;DHT22;23135;51.078;12.108;2023-04-25T15:14:35;10.00;98.40
37242;DHT22;23135;51.078;12.108;2023-04-25T15:17:01;10.00;98.00
37242;DHT22;23135;51.078;12.108;2023-04-25T15:19:27;10.00;96.80
37242;DHT22;23135;51.078;12.108;2023-04-25T15:21:53;9.90;96.30
37242;DHT22;23135;51.078;12.108;2023-04-25T15:24:19;9.90;96.30
37242;DHT22;23135;51.078;12.108;2023-04-25T15:26:45;9.90;97.90
37242;DHT22;23135;51.078;12.108;2023-04-25T15:29:11;9.90;98.00
37242;DHT22;23135;51.078;12.108;2023-04-25T15:31:37;9.90;98.10
37242;DHT22;23135;51.078;12.108;2023-04-25T15:34:03;9.80;98.40